createdAt,value
2019-04-06T00:02:10.234Z,20.27
2019-04-06T00:04:48.593Z,22.60
2019-04-06T00:07:21.757Z,18.70
2019-04-06T00:09:54.983Z,21.67
2019-04-06T00:12:26.820Z,20.80
2019-04-06T00:14:56.148Z,22.30
2019-04-06T00:17:28.697Z,24.83
2019-04-06T00:20:04.778Z,21.20
2019-04-06T00:22:55.279Z,20.77
2019-04-06T00:25:31.114Z,20.70
2019-04-06T00:28:06.707Z,21.70
2019-04-06T00:31:13.983Z,20.13
2019-04-06T00:33:43.727Z,19.43
2019-04-06T00:39:12.709Z,21.00
2019-04-06T00:41:43.795Z,21.10
2019-04-06T00:44:16.892Z,19.67
2019-04-06T00:46:51.395Z,21.37
2019-04-06T00:49:24.283Z,21.67
2019-04-06T00:51:57.144Z,22.57
2019-04-06T00:54:28.372Z,22.30
2019-04-06T00:56:57.732Z,21.37
2019-04-06T00:59:27.774Z,21.07
2019-04-06T01:02:00.256Z,25.33
2019-04-06T01:04:40.261Z,21.37
2019-04-06T01:07:15.346Z,22.60
2019-04-06T01:09:48.895Z,26.63
2019-04-06T01:12:19.811Z,24.07
2019-04-06T01:14:52.456Z,24.07
2019-04-06T01:17:22.947Z,26.97
2019-04-06T01:19:55.393Z,26.97
2019-04-06T01:22:41.616Z,25.60
2019-04-06T01:25:25.872Z,26.27
2019-04-06T01:28:09.054Z,24.60
2019-04-06T01:31:03.435Z,25.70
2019-04-06T01:33:40.684Z,27.30
2019-04-06T01:36:12.886Z,27.53
2019-04-06T01:38:45.095Z,27.97
2019-04-06T01:41:16.693Z,27.83
2019-04-06T01:43:49.752Z,24.97
2019-04-06T01:46:29.150Z,28.30
2019-04-06T01:49:24.275Z,28.70
2019-04-06T01:51:55.485Z,29.33
2019-04-06T01:54:26.123Z,28.60
2019-04-06T01:56:56.453Z,28.03
2019-04-06T01:59:29.723Z,28.30
2019-04-06T02:02:20.577Z,28.20
2019-04-06T02:04:59.735Z,27.17
2019-04-06T02:07:34.391Z,27.30
2019-04-06T02:10:08.194Z,25.93
2019-04-06T02:12:42.027Z,27.63
2019-04-06T02:15:16.662Z,27.43
2019-04-06T02:17:58.498Z,26.67
2019-04-06T02:20:29.009Z,25.03
2019-04-06T02:23:01.971Z,29.00
2019-04-06T02:25:31.336Z,22.93
2019-04-06T02:28:05.381Z,26.20
2019-04-06T02:30:46.751Z,27.57
2019-04-06T02:33:46.285Z,25.50
2019-04-06T02:36:54.662Z,24.63
2019-04-06T02:39:47.508Z,26.03
2019-04-06T02:42:30.593Z,26.17
2019-04-06T02:45:04.300Z,23.83
2019-04-06T02:47:41.684Z,27.43
2019-04-06T02:50:34.891Z,28.03
2019-04-06T02:53:06.303Z,31.00
2019-04-06T02:55:45.018Z,30.17
2019-04-06T02:58:14.996Z,28.17
2019-04-06T03:00:49.037Z,26.10
2019-04-06T03:03:29.103Z,29.17
2019-04-06T03:06:04.939Z,27.63
2019-04-06T03:08:42.837Z,28.73
2019-04-06T03:11:17.527Z,30.47
2019-04-06T03:13:47.716Z,34.17
2019-04-06T03:16:22.450Z,29.10
2019-04-06T03:18:57.411Z,32.00
2019-04-06T03:21:40.739Z,33.20
2019-04-06T03:24:15.561Z,36.93
2019-04-06T03:26:59.766Z,35.20
2019-04-06T03:29:25.586Z,35.33
2019-04-06T03:31:59.693Z,36.73
2019-04-06T03:34:33.918Z,38.90
2019-04-06T03:37:05.859Z,36.63
2019-04-06T03:39:39.057Z,39.13
2019-04-06T03:42:11.464Z,39.43
2019-04-06T03:44:47.251Z,33.23
2019-04-06T03:47:19.171Z,39.77
2019-04-06T03:49:52.733Z,38.97
2019-04-06T03:52:22.374Z,38.47
2019-04-06T03:54:57.958Z,37.17
2019-04-06T03:57:31.112Z,42.23
2019-04-06T04:00:00.632Z,39.40
2019-04-06T04:02:34.453Z,42.37
2019-04-06T04:05:18.041Z,42.43
2019-04-06T04:07:49.989Z,42.10
2019-04-06T04:10:36.215Z,38.90
2019-04-06T04:13:11.361Z,44.20
2019-04-06T04:15:47.530Z,41.53
2019-04-06T04:18:18.755Z,41.33
2019-04-06T04:20:51.548Z,43.57
2019-04-06T04:23:20.988Z,40.23
2019-04-06T04:25:54.026Z,42.87
2019-04-06T04:28:27.346Z,43.70
2019-04-06T04:30:56.685Z,45.57
2019-04-06T04:33:26.346Z,52.17
2019-04-06T04:35:58.406Z,44.57
2019-04-06T04:38:32.332Z,42.17
2019-04-06T04:41:08.787Z,41.57
2019-04-06T04:43:44.417Z,41.40
2019-04-06T04:46:16.541Z,47.10
2019-04-06T04:48:49.507Z,43.97
2019-04-06T04:51:21.228Z,43.80
2019-04-06T04:54:07.778Z,46.37
2019-04-06T04:56:45.440Z,43.87
2019-04-06T04:59:22.611Z,45.13
2019-04-06T05:01:56.428Z,45.00
2019-04-06T05:04:30.080Z,48.63
2019-04-06T05:07:19.476Z,50.17
2019-04-06T05:09:51.661Z,46.80
2019-04-06T05:12:25.795Z,46.77
2019-04-06T05:15:08.454Z,42.20
2019-04-06T05:17:38.233Z,49.93
2019-04-06T05:20:08.083Z,45.67
2019-04-06T05:22:37.312Z,47.70
2019-04-06T05:25:09.757Z,44.67
2019-04-06T05:27:39.198Z,48.80
2019-04-06T05:30:09.680Z,45.83
2019-04-06T05:32:38.923Z,41.07
2019-04-06T05:35:08.459Z,49.90
2019-04-06T05:37:37.895Z,49.30
2019-04-06T05:40:07.542Z,45.90
2019-04-06T05:42:36.869Z,47.87
2019-04-06T05:45:08.763Z,47.20
2019-04-06T05:47:38.039Z,47.00
2019-04-06T05:50:10.066Z,49.17
2019-04-06T05:52:39.280Z,53.07
2019-04-06T05:55:09.830Z,42.87
2019-04-06T05:57:41.165Z,46.63
2019-04-06T06:00:11.285Z,46.63
2019-04-06T06:02:41.824Z,44.43
2019-04-06T06:05:11.485Z,50.50
2019-04-06T06:07:41.221Z,50.47
2019-04-06T06:10:11.170Z,54.77
2019-04-06T06:12:40.652Z,52.47
2019-04-06T06:15:12.615Z,48.30
2019-04-06T06:17:41.772Z,50.73
2019-04-06T06:20:11.036Z,52.07
2019-04-06T06:22:40.341Z,55.07
2019-04-06T06:25:10.203Z,54.17
2019-04-06T06:27:39.500Z,49.17
2019-04-06T06:30:15.163Z,52.37
2019-04-06T06:32:44.531Z,55.90
2019-04-06T06:35:14.912Z,49.93
2019-04-06T06:41:06.464Z,48.10
2019-04-06T06:43:36.805Z,55.23
2019-04-06T06:46:06.100Z,52.87
2019-04-06T06:48:36.485Z,51.37
2019-04-06T06:51:07.599Z,58.63
2019-04-06T06:53:37.077Z,52.80
2019-04-06T06:56:06.331Z,55.33
2019-04-06T06:58:35.571Z,51.63
2019-04-06T07:01:04.852Z,51.67
2019-04-06T07:03:34.121Z,53.63
2019-04-06T07:06:03.407Z,51.13
2019-04-06T07:08:32.884Z,53.17
2019-04-06T07:11:02.589Z,51.67
2019-04-06T07:13:32.295Z,54.27
2019-04-06T07:16:01.597Z,50.03
2019-04-06T07:18:30.894Z,50.70
2019-04-06T07:21:02.029Z,53.20
2019-04-06T07:23:31.288Z,53.87
2019-04-06T07:26:00.640Z,58.43
2019-04-06T07:28:38.131Z,61.10
2019-04-06T07:31:03.057Z,57.50
2019-04-06T07:33:32.410Z,50.07
2019-04-06T07:36:01.678Z,59.67
2019-04-06T07:38:31.097Z,57.00
2019-04-06T07:41:00.796Z,57.27
2019-04-06T07:43:30.106Z,65.37
2019-04-06T07:45:59.318Z,62.80
2019-04-06T07:48:28.702Z,54.63
2019-04-06T07:50:57.906Z,58.93
2019-04-06T07:53:27.189Z,57.60
2019-04-06T07:55:56.392Z,56.90
2019-04-06T07:58:25.589Z,60.10
2019-04-06T08:00:54.947Z,56.27
2019-04-06T08:03:27.327Z,54.00
2019-04-06T08:05:56.677Z,59.53
2019-04-06T08:08:28.514Z,62.30
2019-04-06T08:10:57.105Z,54.83
2019-04-06T08:13:26.720Z,60.50
2019-04-06T08:15:56.035Z,57.77
2019-04-06T08:18:25.674Z,56.30
2019-04-06T08:20:55.019Z,60.80
2019-04-06T08:23:24.386Z,61.43
2019-04-06T08:25:54.045Z,63.73
2019-04-06T08:28:25.738Z,58.60
2019-04-06T08:30:55.006Z,57.27
2019-04-06T08:33:24.349Z,54.77
2019-04-06T08:35:53.639Z,57.17
2019-04-06T08:38:22.900Z,56.27
2019-04-06T08:40:53.420Z,55.17
2019-04-06T08:43:22.773Z,49.83
2019-04-06T08:45:52.292Z,52.23
2019-04-06T08:48:23.593Z,49.60
2019-04-06T08:50:52.887Z,57.13
2019-04-06T08:53:22.220Z,55.67
2019-04-06T08:55:51.465Z,50.47
2019-04-06T08:58:38.921Z,55.23
2019-04-06T09:01:13.575Z,53.47
2019-04-06T09:03:42.905Z,50.30
2019-04-06T09:06:12.143Z,52.87
2019-04-06T09:08:42.753Z,53.20
2019-04-06T09:11:12.642Z,48.47
2019-04-06T09:13:42.986Z,53.87
2019-04-06T09:16:12.389Z,56.27
2019-04-06T09:18:41.790Z,49.57
2019-04-06T09:21:11.982Z,48.77
2019-04-06T09:23:41.407Z,54.57
2019-04-06T09:26:15.882Z,51.00
2019-04-06T09:28:45.244Z,52.93
2019-04-06T09:31:14.418Z,49.87
2019-04-06T09:33:43.611Z,48.63
2019-04-06T09:36:12.999Z,53.20
2019-04-06T09:38:43.663Z,52.37
2019-04-06T09:41:16.043Z,49.80
2019-04-06T09:43:45.219Z,51.23
2019-04-06T09:46:34.795Z,57.93
2019-04-06T09:49:26.270Z,52.20
2019-04-06T09:52:20.654Z,55.80
2019-04-06T09:55:08.874Z,60.17
2019-04-06T09:58:03.432Z,58.30
2019-04-06T10:00:41.035Z,60.83
2019-04-06T10:03:29.307Z,62.77
2019-04-06T10:06:23.447Z,58.50
2019-04-06T10:09:20.412Z,56.33
2019-04-06T10:12:14.565Z,66.57
2019-04-06T10:15:05.590Z,68.80
2019-04-06T10:17:44.427Z,67.00
2019-04-06T10:20:31.239Z,70.70
2019-04-06T10:23:14.933Z,80.20
2019-04-06T10:26:01.985Z,69.20
2019-04-06T10:28:48.618Z,77.33
2019-04-06T10:31:29.052Z,73.40
2019-04-06T10:34:17.467Z,82.67
2019-04-06T10:37:08.201Z,75.20
2019-04-06T10:39:41.689Z,77.47
2019-04-06T10:42:32.924Z,81.60
2019-04-06T10:45:25.909Z,79.17
2019-04-06T10:48:26.228Z,77.27
2019-04-06T10:51:14.424Z,73.80
2019-04-06T10:54:12.339Z,72.53
2019-04-06T10:56:59.697Z,76.20
2019-04-06T10:59:39.309Z,79.33
2019-04-06T11:02:26.857Z,79.07
2019-04-06T11:05:26.241Z,77.77
2019-04-06T11:08:23.230Z,83.23
2019-04-06T11:11:20.622Z,74.27
2019-04-06T11:14:34.501Z,78.77
2019-04-06T11:17:25.511Z,72.23
2019-04-06T11:20:10.072Z,81.33
2019-04-06T11:22:54.001Z,78.50
2019-04-06T11:25:36.720Z,77.17
2019-04-06T11:28:21.316Z,81.43
2019-04-06T11:31:14.583Z,76.87
2019-04-06T11:34:01.827Z,76.17
2019-04-06T11:36:40.975Z,79.93
2019-04-06T11:39:30.509Z,84.30
2019-04-06T11:42:39.477Z,73.70
2019-04-06T11:45:42.773Z,73.27
2019-04-06T11:48:35.181Z,69.10
2019-04-06T11:51:26.071Z,71.57
2019-04-06T11:54:12.508Z,72.13
2019-04-06T11:57:17.460Z,69.90
2019-04-06T12:00:07.011Z,62.03
2019-04-06T12:03:07.487Z,62.17
2019-04-06T12:05:54.351Z,65.47
2019-04-06T12:08:34.858Z,60.33
2019-04-06T12:11:29.582Z,52.13
2019-04-06T12:14:35.106Z,57.60
2019-04-06T12:17:15.427Z,59.70
2019-04-06T12:19:55.154Z,53.87
2019-04-06T12:22:49.822Z,58.27
2019-04-06T12:25:41.795Z,54.63
2019-04-06T12:28:43.933Z,56.27
2019-04-06T12:31:22.368Z,51.87
2019-04-06T12:34:20.511Z,56.07
2019-04-06T12:37:08.373Z,49.93
2019-04-06T12:40:08.006Z,55.40
2019-04-06T12:43:10.514Z,48.83
2019-04-06T12:46:19.431Z,53.90
2019-04-06T12:49:27.282Z,50.43
2019-04-06T12:52:13.699Z,49.00
2019-04-06T12:55:17.257Z,51.30
2019-04-06T12:58:26.710Z,46.43
2019-04-06T13:01:20.318Z,48.40
2019-04-06T13:04:14.183Z,49.00
2019-04-06T13:07:01.325Z,46.33
2019-04-06T13:10:04.781Z,45.10
2019-04-06T13:12:40.280Z,45.70
2019-04-06T13:15:27.238Z,47.37
2019-04-06T13:18:21.081Z,49.47
2019-04-06T13:21:12.196Z,43.43
2019-04-06T13:24:05.954Z,45.40
2019-04-06T13:26:47.252Z,48.60
2019-04-06T13:29:47.731Z,52.47
2019-04-06T13:32:34.767Z,47.93
2019-04-06T13:35:25.577Z,48.30
2019-04-06T13:38:09.398Z,41.93
2019-04-06T13:41:03.500Z,47.83
2019-04-06T13:43:39.771Z,44.70
2019-04-06T13:46:28.191Z,48.07
2019-04-06T13:49:13.772Z,46.23
2019-04-06T13:52:07.842Z,45.53
2019-04-06T13:54:55.771Z,45.80
2019-04-06T13:57:40.330Z,45.63
2019-04-06T14:00:28.902Z,43.50
2019-04-06T14:03:05.027Z,45.07
2019-04-06T14:05:43.718Z,39.70
2019-04-06T14:08:30.371Z,42.83
2019-04-06T14:11:18.689Z,39.20
2019-04-06T14:14:09.625Z,43.23
2019-04-06T14:17:16.167Z,40.80
2019-04-06T14:20:03.256Z,43.23
2019-04-06T14:22:44.039Z,40.10
2019-04-06T14:25:35.631Z,41.30
2019-04-06T14:28:26.869Z,39.20
2019-04-06T14:31:24.440Z,38.47
2019-04-06T14:34:02.046Z,36.83
2019-04-06T14:36:56.202Z,40.57
2019-04-06T14:39:44.379Z,40.23
2019-04-06T14:42:27.851Z,42.67
2019-04-06T14:45:24.582Z,41.63
2019-04-06T14:48:11.714Z,42.13
2019-04-06T14:50:58.327Z,48.67
2019-04-06T14:53:52.548Z,47.37
2019-04-06T14:56:40.864Z,45.90
2019-04-06T14:59:28.157Z,46.17
2019-04-06T15:02:16.319Z,45.93
2019-04-06T15:05:03.183Z,50.57
2019-04-06T15:07:41.851Z,42.07
2019-04-06T15:10:39.153Z,45.43
2019-04-06T15:13:20.077Z,41.93
2019-04-06T15:16:07.984Z,40.67
2019-04-06T15:19:11.014Z,41.53
2019-04-06T15:22:07.962Z,43.90
2019-04-06T15:24:54.889Z,40.60
2019-04-06T15:27:49.028Z,38.40
2019-04-06T15:30:50.556Z,37.30
2019-04-06T15:33:38.445Z,37.30
2019-04-06T15:36:19.946Z,38.93
2019-04-06T15:39:13.839Z,37.57
2019-04-06T15:41:57.554Z,36.53
2019-04-06T15:44:47.622Z,38.70
2019-04-06T15:47:32.752Z,33.33
2019-04-06T15:50:28.491Z,36.73
2019-04-06T15:53:25.356Z,38.63
2019-04-06T15:56:03.578Z,39.33
2019-04-06T15:58:46.991Z,37.93
2019-04-06T16:01:29.241Z,43.50
2019-04-06T16:04:26.619Z,41.00
2019-04-06T16:29:04.461Z,41.57
2019-04-06T16:32:12.334Z,42.60
2019-04-06T16:35:25.048Z,42.67
2019-04-06T16:38:42.323Z,42.00
2019-04-06T16:41:28.973Z,36.57
2019-04-06T16:44:17.154Z,42.00
2019-04-06T16:47:14.648Z,35.77
2019-04-06T16:50:10.371Z,40.03
2019-04-06T16:52:53.562Z,42.30
2019-04-06T16:55:38.408Z,55.17
2019-04-06T16:58:38.502Z,45.30
2019-04-06T17:01:20.974Z,41.03
2019-04-06T17:04:14.975Z,46.10
2019-04-06T17:07:15.102Z,45.17
2019-04-06T17:09:59.056Z,44.27
2019-04-06T17:13:02.289Z,46.80
2019-04-06T17:15:53.799Z,42.70
2019-04-06T17:19:01.662Z,45.93
2019-04-06T17:21:49.956Z,49.43
2019-04-06T17:24:37.060Z,47.80
2019-04-06T17:27:44.508Z,50.63
2019-04-06T17:30:43.107Z,49.77
2019-04-06T17:33:21.532Z,52.10
2019-04-06T17:36:24.626Z,58.03
2019-04-06T17:39:15.919Z,50.13
2019-04-06T17:42:13.139Z,49.97
2019-04-06T17:45:20.749Z,55.50
2019-04-06T17:48:16.125Z,55.17
2019-04-06T17:51:10.195Z,54.27
2019-04-06T17:54:13.119Z,59.13
2019-04-06T17:57:00.529Z,67.40
2019-04-06T17:59:56.904Z,59.73
2019-04-06T18:02:58.663Z,61.80
2019-04-06T18:05:48.841Z,58.60
2019-04-06T18:08:52.222Z,66.33
2019-04-06T18:11:35.254Z,63.93
2019-04-06T18:14:10.397Z,57.63
2019-04-06T18:16:45.715Z,65.13
2019-04-06T18:19:21.519Z,62.17
2019-04-06T18:21:53.880Z,71.23
2019-04-06T18:24:25.369Z,73.00
2019-04-06T18:26:57.387Z,69.80
2019-04-06T18:29:34.618Z,65.43
2019-04-06T18:32:34.016Z,72.63
2019-04-06T18:35:06.171Z,65.00
2019-04-06T18:37:59.342Z,66.93
2019-04-06T18:40:32.854Z,61.93
2019-04-06T18:43:06.355Z,71.83
2019-04-06T18:45:42.267Z,75.47
2019-04-06T18:48:26.034Z,73.33
2019-04-06T18:50:57.656Z,82.20
2019-04-06T18:53:37.654Z,74.80
2019-04-06T18:56:09.672Z,70.87
2019-04-06T18:58:43.759Z,71.37
2019-04-06T19:01:20.648Z,66.17
2019-04-06T19:03:55.547Z,69.40
2019-04-06T19:06:27.276Z,73.50
2019-04-06T19:08:57.868Z,73.90
2019-04-06T19:11:39.170Z,78.63
2019-04-06T19:14:13.065Z,72.10
2019-04-06T19:16:45.506Z,74.03
2019-04-06T19:19:18.220Z,68.33
2019-04-06T19:21:51.216Z,65.80
2019-04-06T19:24:24.898Z,69.53
2019-04-06T19:27:01.974Z,69.93
2019-04-06T19:29:40.530Z,74.90
2019-04-06T19:32:12.951Z,69.10
2019-04-06T19:34:49.854Z,73.73
2019-04-06T19:37:21.572Z,76.90
2019-04-06T19:39:54.195Z,80.07
2019-04-06T19:42:32.004Z,80.63
2019-04-06T19:45:06.820Z,73.80
2019-04-06T19:47:48.292Z,76.07
2019-04-06T19:50:27.138Z,77.07
2019-04-06T19:52:58.520Z,83.17
2019-04-06T19:55:30.155Z,81.50
2019-04-06T19:58:00.698Z,77.70
2019-04-06T20:00:34.772Z,81.63
2019-04-06T20:03:08.882Z,85.47
2019-04-06T20:05:53.647Z,86.43
2019-04-06T20:08:34.545Z,82.70
2019-04-06T20:11:07.200Z,83.03
2019-04-06T20:13:41.061Z,80.03
2019-04-06T20:16:12.375Z,81.30
2019-04-06T20:18:44.217Z,88.23
2019-04-06T20:21:39.103Z,79.33
2019-04-06T20:24:14.351Z,80.23
2019-04-06T20:26:45.260Z,78.60
2019-04-06T20:29:22.612Z,69.70
2019-04-06T20:31:55.156Z,73.43
2019-04-06T20:34:29.091Z,73.90
2019-04-06T20:36:58.419Z,82.43
2019-04-06T20:39:32.861Z,77.63
2019-04-06T20:42:23.668Z,74.73
2019-04-06T20:44:58.107Z,76.27
2019-04-06T20:47:32.349Z,73.90
2019-04-06T20:50:01.785Z,73.13
2019-04-06T20:52:34.310Z,67.97
2019-04-06T20:55:14.407Z,67.10
2019-04-06T20:57:51.694Z,72.93
2019-04-06T21:00:25.868Z,72.47
2019-04-06T21:03:06.211Z,74.10
2019-04-06T21:05:41.138Z,70.17
2019-04-06T21:08:15.674Z,77.33
2019-04-06T21:10:53.227Z,68.07
2019-04-06T21:13:26.897Z,73.07
2019-04-06T21:16:05.753Z,70.20
2019-04-06T21:18:36.948Z,67.00
2019-04-06T21:21:11.033Z,75.37
2019-04-06T21:23:46.886Z,72.40
2019-04-06T21:26:26.680Z,68.73
2019-04-06T21:29:02.535Z,77.73
2019-04-06T21:31:52.007Z,74.17
2019-04-06T21:34:30.420Z,71.17
2019-04-06T21:37:22.768Z,71.90
2019-04-06T21:40:12.602Z,79.30
2019-04-06T21:42:53.693Z,67.47
2019-04-06T21:45:27.926Z,75.90
2019-04-06T21:48:16.087Z,83.37
2019-04-06T21:50:53.193Z,77.77
2019-04-06T21:53:29.179Z,75.10
2019-04-06T21:56:04.185Z,76.87
2019-04-06T21:58:35.310Z,76.87
2019-04-06T22:01:08.401Z,73.50
2019-04-06T22:03:41.800Z,68.37
2019-04-06T22:06:25.760Z,78.73
2019-04-06T22:09:01.465Z,79.00
2019-04-06T22:11:35.438Z,78.93
2019-04-06T22:14:06.073Z,75.33
2019-04-06T22:17:01.542Z,72.50
2019-04-06T22:19:34.218Z,76.57
2019-04-06T22:22:17.986Z,73.27
2019-04-06T22:24:47.318Z,83.40
2019-04-06T22:27:16.637Z,77.43
2019-04-06T22:29:57.885Z,70.20
2019-04-06T22:32:35.564Z,80.00
2019-04-06T22:35:06.030Z,78.20
2019-04-06T22:37:41.889Z,72.47
2019-04-06T22:40:12.297Z,74.00
2019-04-06T22:42:48.870Z,72.53
2019-04-06T22:45:20.048Z,76.30
2019-04-06T22:48:02.578Z,82.03
2019-04-06T22:50:32.690Z,79.77
2019-04-06T22:53:05.380Z,76.40
2019-04-06T22:55:38.063Z,84.20
2019-04-06T22:58:11.822Z,90.33
2019-04-06T23:00:50.830Z,85.17
2019-04-06T23:03:48.631Z,83.03
2019-04-06T23:06:32.319Z,86.43
2019-04-06T23:09:08.019Z,93.07
2019-04-06T23:11:40.998Z,92.60
2019-04-06T23:14:16.852Z,89.87
2019-04-06T23:16:55.297Z,78.30
2019-04-06T23:19:32.657Z,82.70
2019-04-06T23:22:06.653Z,88.57
2019-04-06T23:24:52.508Z,96.17
2019-04-06T23:27:26.052Z,86.17
2019-04-06T23:29:55.437Z,82.70
2019-04-06T23:32:34.803Z,85.17
2019-04-06T23:35:07.340Z,83.13
2019-04-06T23:37:40.300Z,82.33
2019-04-06T23:40:09.936Z,85.10
2019-04-06T23:42:41.998Z,82.23
2019-04-06T23:45:12.909Z,82.03
2019-04-06T23:47:51.854Z,77.27
2019-04-06T23:50:21.562Z,88.27
2019-04-06T23:52:55.182Z,89.63
2019-04-06T23:55:29.425Z,83.87
2019-04-06T23:58:06.151Z,87.47
